createdAt,value
2022-08-20T00:00:14.211Z,27.24
2022-08-20T00:02:45.931Z,27.23
2022-08-20T00:05:13.345Z,27.25
2022-08-20T00:07:39.978Z,27.26
2022-08-20T00:10:06.991Z,27.29
2022-08-20T00:12:34.285Z,27.31
2022-08-20T00:15:00.921Z,27.33
2022-08-20T00:17:28.522Z,27.36
2022-08-20T00:19:55.013Z,27.36
2022-08-20T00:22:21.458Z,27.37
2022-08-20T00:24:47.907Z,27.38
2022-08-20T00:27:14.338Z,27.39
2022-08-20T00:29:40.757Z,27.38
2022-08-20T00:32:07.338Z,27.39
2022-08-20T00:34:33.761Z,27.39
2022-08-20T00:37:00.449Z,27.39
2022-08-20T00:39:26.967Z,27.41
2022-08-20T00:41:53.457Z,27.41
2022-08-20T00:44:22.024Z,27.40
2022-08-20T00:46:49.124Z,27.41
2022-08-20T00:49:17.615Z,27.42
2022-08-20T00:51:46.766Z,27.41
2022-08-20T00:54:19.059Z,27.41
2022-08-20T00:56:47.062Z,27.39
2022-08-20T00:59:16.461Z,27.40
2022-08-20T01:01:54.904Z,27.39
2022-08-20T01:04:23.227Z,27.39
2022-08-20T01:06:49.722Z,27.38
2022-08-20T01:09:16.253Z,27.39
2022-08-20T01:11:42.821Z,27.39
2022-08-20T01:14:29.982Z,27.40
2022-08-20T01:16:59.597Z,27.40
2022-08-20T01:19:30.348Z,27.41
2022-08-20T01:21:57.478Z,27.40
2022-08-20T01:24:34.427Z,27.39
2022-08-20T01:27:03.959Z,27.41
2022-08-20T01:29:35.025Z,27.39
2022-08-20T01:32:02.374Z,27.40
2022-08-20T01:34:29.388Z,27.40
2022-08-20T01:36:57.494Z,27.41
2022-08-20T01:39:25.759Z,27.42
2022-08-20T01:42:00.509Z,27.42
2022-08-20T01:44:27.306Z,27.44
2022-08-20T01:46:57.585Z,27.43
2022-08-20T01:49:24.366Z,27.44
2022-08-20T01:51:52.238Z,27.45
2022-08-20T01:54:18.718Z,27.43
2022-08-20T01:57:05.877Z,27.44
2022-08-20T01:59:32.577Z,27.42
2022-08-20T02:02:00.225Z,27.43
2022-08-20T02:04:27.083Z,27.43
2022-08-20T02:06:56.598Z,27.40
2022-08-20T02:09:25.558Z,27.39
2022-08-20T02:11:53.413Z,27.41
2022-08-20T02:14:20.272Z,27.40
2022-08-20T02:16:54.737Z,27.39
2022-08-20T02:19:27.817Z,27.41
2022-08-20T02:21:56.937Z,27.40
2022-08-20T02:24:23.429Z,27.39
2022-08-20T02:26:50.445Z,27.39
2022-08-20T02:29:16.950Z,27.40
2022-08-20T02:32:26.240Z,27.40
2022-08-20T02:34:31.152Z,27.41
2022-08-20T02:36:57.640Z,27.42
2022-08-20T02:39:24.889Z,27.42
2022-08-20T02:41:51.342Z,27.42
2022-08-20T02:44:20.522Z,27.43
2022-08-20T02:46:48.238Z,27.43
2022-08-20T02:49:14.714Z,27.43
2022-08-20T02:51:41.179Z,27.42
2022-08-20T02:54:07.597Z,27.41
2022-08-20T02:56:34.218Z,27.42
2022-08-20T02:59:00.738Z,27.41
2022-08-20T03:01:27.701Z,27.42
2022-08-20T03:03:57.249Z,27.42
2022-08-20T03:06:23.843Z,27.41
2022-08-20T03:08:50.361Z,27.42
2022-08-20T03:11:17.345Z,27.42
2022-08-20T03:13:43.826Z,27.42
2022-08-20T03:16:10.470Z,27.41
2022-08-20T03:18:39.094Z,27.41
2022-08-20T03:21:06.679Z,27.41
2022-08-20T03:23:38.077Z,27.40
2022-08-20T03:26:08.130Z,27.39
2022-08-20T03:28:35.246Z,27.39
2022-08-20T03:31:01.990Z,27.39
2022-08-20T03:33:28.662Z,27.39
2022-08-20T03:35:55.137Z,27.37
2022-08-20T03:38:32.250Z,27.37
2022-08-20T03:40:59.348Z,27.37
2022-08-20T03:43:25.795Z,27.37
2022-08-20T03:45:52.390Z,27.36
2022-08-20T03:48:19.802Z,27.35
2022-08-20T03:50:47.006Z,27.36
2022-08-20T03:53:14.664Z,27.37
2022-08-20T03:55:42.543Z,27.34
2022-08-20T03:58:13.426Z,27.33
2022-08-20T04:00:49.066Z,27.32
2022-08-20T04:03:16.038Z,27.33
2022-08-20T04:05:43.642Z,27.33
2022-08-20T04:08:12.445Z,27.35
2022-08-20T04:10:39.239Z,27.34
2022-08-20T04:13:06.981Z,27.36
2022-08-20T04:15:35.481Z,27.34
2022-08-20T04:18:06.213Z,27.36
2022-08-20T04:20:33.520Z,27.36
2022-08-20T04:23:02.526Z,27.36
2022-08-20T04:25:31.166Z,27.37
2022-08-20T04:28:03.429Z,27.37
2022-08-20T04:30:30.341Z,27.36
2022-08-20T04:32:56.824Z,27.37
2022-08-20T04:35:24.615Z,27.37
2022-08-20T04:37:57.664Z,27.37
2022-08-20T04:40:42.935Z,27.38
2022-08-20T04:43:10.132Z,27.36
2022-08-20T04:45:39.098Z,27.36
2022-08-20T04:48:06.842Z,27.34
2022-08-20T04:50:36.370Z,27.34
2022-08-20T04:53:04.501Z,27.34
2022-08-20T04:55:31.465Z,27.34
2022-08-20T04:58:07.946Z,27.34
2022-08-20T05:00:34.580Z,27.33
2022-08-20T05:03:01.266Z,27.30
2022-08-20T05:05:28.071Z,27.30
2022-08-20T05:07:55.580Z,27.30
2022-08-20T05:10:23.635Z,27.28
2022-08-20T05:12:56.782Z,27.29
2022-08-20T05:15:24.634Z,27.29
2022-08-20T05:17:54.916Z,27.29
2022-08-20T05:20:21.539Z,27.28
2022-08-20T05:22:48.082Z,27.28
2022-08-20T05:25:14.695Z,27.26
2022-08-20T05:27:47.302Z,27.23
2022-08-20T05:30:14.268Z,27.23
2022-08-20T05:32:44.717Z,27.24
2022-08-20T05:35:11.936Z,27.25
2022-08-20T05:37:40.456Z,27.25
2022-08-20T05:40:11.933Z,27.27
2022-08-20T05:42:38.624Z,27.27
2022-08-20T05:45:11.222Z,27.27
2022-08-20T05:47:42.848Z,27.28
2022-08-20T05:50:10.711Z,27.25
2022-08-20T05:52:46.436Z,27.25
2022-08-20T05:55:13.413Z,27.24
2022-08-20T05:57:40.609Z,27.24
2022-08-20T06:00:08.692Z,27.25
2022-08-20T06:02:53.870Z,27.25
2022-08-20T06:05:20.450Z,27.25
2022-08-20T06:07:46.933Z,27.24
2022-08-20T06:10:13.738Z,27.25
2022-08-20T06:12:40.149Z,27.25
2022-08-20T06:15:07.154Z,27.24
2022-08-20T06:17:39.579Z,27.23
2022-08-20T06:20:07.517Z,27.23
2022-08-20T06:22:34.221Z,27.25
2022-08-20T06:25:01.671Z,27.21
2022-08-20T06:27:29.159Z,27.19
2022-08-20T06:29:55.631Z,27.19
2022-08-20T06:32:28.815Z,27.18
2022-08-20T06:34:59.006Z,27.13
2022-08-20T06:37:30.902Z,27.14
2022-08-20T06:40:00.864Z,27.15
2022-08-20T06:42:27.319Z,27.14
2022-08-20T06:44:53.845Z,27.15
2022-08-20T06:47:20.971Z,27.15
2022-08-20T06:49:48.527Z,27.16
2022-08-20T06:52:18.099Z,27.16
2022-08-20T06:54:45.164Z,27.17
2022-08-20T06:57:11.641Z,27.17
2022-08-20T06:59:38.217Z,27.18
2022-08-20T07:02:05.728Z,27.19
2022-08-20T07:04:32.251Z,27.20
2022-08-20T07:06:59.444Z,27.20
2022-08-20T07:09:26.526Z,27.21
2022-08-20T07:11:53.156Z,27.21
2022-08-20T07:14:19.852Z,27.21
2022-08-20T07:16:49.591Z,27.21
2022-08-20T07:19:16.042Z,27.22
2022-08-20T07:21:42.619Z,27.22
2022-08-20T07:24:10.021Z,27.22
2022-08-20T07:26:36.677Z,27.23
2022-08-20T07:29:03.454Z,27.21
2022-08-20T07:31:48.361Z,27.22
2022-08-20T07:34:14.976Z,27.22
2022-08-20T07:36:41.509Z,27.23
2022-08-20T07:39:08.068Z,27.22
2022-08-20T07:41:36.049Z,27.23
2022-08-20T07:44:02.688Z,27.23
2022-08-20T07:46:31.638Z,27.20
2022-08-20T07:48:58.698Z,27.22
2022-08-20T07:51:25.146Z,27.22
2022-08-20T07:53:52.018Z,27.23
2022-08-20T07:56:24.161Z,27.22
2022-08-20T07:58:52.464Z,27.24
2022-08-20T08:01:30.483Z,27.25
2022-08-20T08:03:57.811Z,27.26
2022-08-20T08:06:30.039Z,27.27
2022-08-20T08:09:03.703Z,27.26
2022-08-20T08:11:31.562Z,27.27
2022-08-20T08:13:59.325Z,27.28
2022-08-20T08:16:25.834Z,27.29
2022-08-20T08:18:56.693Z,27.30
2022-08-20T08:21:23.882Z,27.30
2022-08-20T08:23:50.424Z,27.30
2022-08-20T08:26:18.977Z,27.31
2022-08-20T08:28:46.207Z,27.32
2022-08-20T08:31:12.803Z,27.31
2022-08-20T08:33:40.766Z,27.31
2022-08-20T08:36:09.816Z,27.30
2022-08-20T08:38:37.852Z,27.31
2022-08-20T08:41:24.573Z,27.30
2022-08-20T08:43:55.622Z,27.30
2022-08-20T08:46:27.388Z,27.29
2022-08-20T08:48:57.758Z,27.30
2022-08-20T08:51:48.611Z,27.30
2022-08-20T08:54:20.027Z,27.29
2022-08-20T08:56:50.156Z,27.29
2022-08-20T08:59:17.872Z,27.28
2022-08-20T09:01:54.915Z,27.28
2022-08-20T09:04:24.213Z,27.28
2022-08-20T09:06:53.523Z,27.28
2022-08-20T09:09:23.010Z,27.28
2022-08-20T09:11:51.372Z,27.27
2022-08-20T09:14:18.401Z,27.27
2022-08-20T09:16:53.051Z,27.27
2022-08-20T09:19:20.110Z,27.27
2022-08-20T09:21:46.678Z,27.28
2022-08-20T09:24:13.284Z,27.27
2022-08-20T09:26:39.775Z,27.28
2022-08-20T09:29:06.315Z,27.28
2022-08-20T09:31:32.933Z,27.26
2022-08-20T09:33:59.570Z,27.27
2022-08-20T09:36:31.620Z,27.28
2022-08-20T09:38:59.482Z,27.27
2022-08-20T09:41:25.951Z,27.27
2022-08-20T09:43:52.639Z,27.29
2022-08-20T09:46:19.164Z,27.30
2022-08-20T09:48:45.646Z,27.32
2022-08-20T09:51:12.556Z,27.32
2022-08-20T09:53:39.106Z,27.34
2022-08-20T09:56:05.726Z,27.34
2022-08-20T09:58:35.328Z,27.36
2022-08-20T10:01:05.950Z,27.35
2022-08-20T10:03:41.978Z,27.37
2022-08-20T10:06:08.739Z,27.40
2022-08-20T10:08:35.298Z,27.41
2022-08-20T10:11:01.774Z,27.40
2022-08-20T10:13:28.314Z,27.39
2022-08-20T10:15:54.883Z,27.40
2022-08-20T10:18:21.367Z,27.39
2022-08-20T10:20:47.923Z,27.40
2022-08-20T10:23:14.572Z,27.40
2022-08-20T10:25:42.139Z,27.41
2022-08-20T10:28:08.697Z,27.40
2022-08-20T10:30:35.538Z,27.39
2022-08-20T10:33:02.045Z,27.40
2022-08-20T10:35:28.681Z,27.40
2022-08-20T10:37:55.367Z,27.41
2022-08-20T10:40:22.174Z,27.41
2022-08-20T10:42:48.741Z,27.41
2022-08-20T10:45:16.150Z,27.41
2022-08-20T10:47:42.753Z,27.41
2022-08-20T10:50:10.525Z,27.42
2022-08-20T10:52:37.261Z,27.40
2022-08-20T10:55:04.849Z,27.40
2022-08-20T10:57:31.626Z,27.40
2022-08-20T10:59:58.996Z,27.41
2022-08-20T11:02:25.958Z,27.39
2022-08-20T11:04:53.186Z,27.40
2022-08-20T11:07:55.565Z,27.40
2022-08-20T11:10:13.957Z,27.39
2022-08-20T11:12:41.037Z,27.40
2022-08-20T11:15:10.881Z,27.39
2022-08-20T11:17:39.910Z,27.41
2022-08-20T11:20:07.953Z,27.40
2022-08-20T11:22:34.599Z,27.38
2022-08-20T11:25:01.065Z,27.39
2022-08-20T11:27:29.164Z,27.39
2022-08-20T11:29:55.739Z,27.38
2022-08-20T11:32:22.278Z,27.38
2022-08-20T11:34:48.969Z,27.38
2022-08-20T11:37:16.550Z,27.38
2022-08-20T11:39:43.142Z,27.37
2022-08-20T11:42:09.998Z,27.36
2022-08-20T11:44:36.500Z,27.36
2022-08-20T11:47:04.233Z,27.36
2022-08-20T11:49:31.193Z,27.34
2022-08-20T11:51:57.734Z,27.33
2022-08-20T11:54:24.294Z,27.31
2022-08-20T11:56:50.838Z,27.32
2022-08-20T11:59:18.297Z,27.33
2022-08-20T12:02:02.309Z,27.34
2022-08-20T12:04:30.022Z,27.33
2022-08-20T12:07:07.408Z,27.31
2022-08-20T12:09:35.890Z,27.32
2022-08-20T12:12:06.809Z,27.34
2022-08-20T12:14:33.442Z,27.33
2022-08-20T12:17:09.833Z,27.33
2022-08-20T12:19:40.319Z,27.33
2022-08-20T12:22:24.812Z,27.33
2022-08-20T12:24:52.862Z,27.35
2022-08-20T12:27:23.159Z,27.35
2022-08-20T12:29:53.130Z,27.36
2022-08-20T12:32:20.333Z,27.36
2022-08-20T12:34:46.874Z,27.38
2022-08-20T12:37:16.122Z,27.38
2022-08-20T12:39:44.038Z,27.36
2022-08-20T12:42:11.005Z,27.37
2022-08-20T12:44:38.218Z,27.39
2022-08-20T12:47:08.053Z,27.39
2022-08-20T12:49:34.666Z,27.38
2022-08-20T12:52:01.341Z,27.38
2022-08-20T12:54:27.830Z,27.39
2022-08-20T12:56:54.401Z,27.40
2022-08-20T12:59:25.848Z,27.38
2022-08-20T13:01:53.106Z,27.37
2022-08-20T13:04:19.755Z,27.37
2022-08-20T13:06:46.563Z,27.37
2022-08-20T13:09:13.336Z,27.37
2022-08-20T13:11:39.913Z,27.36
2022-08-20T13:14:06.794Z,27.36
2022-08-20T13:16:33.363Z,27.37
2022-08-20T13:19:02.001Z,27.35
2022-08-20T13:21:37.425Z,27.36
2022-08-20T13:24:04.113Z,27.36
2022-08-20T13:26:30.629Z,27.34
2022-08-20T13:28:57.091Z,27.33
2022-08-20T13:31:24.253Z,27.33
2022-08-20T13:33:50.701Z,27.33
2022-08-20T13:36:17.277Z,27.31
2022-08-20T13:38:43.807Z,27.31
2022-08-20T13:41:10.363Z,27.30
2022-08-20T13:43:36.909Z,27.30
2022-08-20T13:46:04.942Z,27.28
2022-08-20T13:48:31.514Z,27.28
2022-08-20T13:50:58.014Z,27.27
2022-08-20T13:53:24.727Z,27.27
2022-08-20T13:55:51.392Z,27.26
2022-08-20T13:58:18.315Z,27.26
2022-08-20T14:00:45.576Z,27.26
2022-08-20T14:03:12.418Z,27.27
2022-08-20T14:05:40.762Z,27.26
2022-08-20T14:08:08.570Z,27.25
2022-08-20T14:10:35.662Z,27.25
2022-08-20T14:13:03.331Z,27.27
2022-08-20T14:15:30.001Z,27.26
2022-08-20T14:17:57.516Z,27.27
2022-08-20T14:20:25.985Z,27.27
2022-08-20T14:22:56.020Z,27.26
2022-08-20T14:25:23.177Z,27.26
2022-08-20T14:27:50.707Z,27.27
2022-08-20T14:30:18.847Z,27.28
2022-08-20T14:32:45.608Z,27.28
2022-08-20T14:35:12.362Z,27.28
2022-08-20T14:37:40.354Z,27.28
2022-08-20T14:40:09.211Z,27.28
2022-08-20T14:42:36.120Z,27.28
2022-08-20T14:45:04.348Z,27.30
2022-08-20T14:47:35.703Z,27.30
2022-08-20T14:50:05.304Z,27.33
2022-08-20T14:52:36.350Z,27.33
2022-08-20T14:55:07.225Z,27.33
2022-08-20T14:57:33.676Z,27.33
2022-08-20T15:00:00.197Z,27.34
2022-08-20T15:02:26.713Z,27.34
2022-08-20T15:04:54.462Z,27.36
2022-08-20T15:07:23.974Z,27.35
2022-08-20T15:09:50.510Z,27.33
2022-08-20T15:12:16.929Z,27.36
2022-08-20T15:14:43.442Z,27.36
2022-08-20T15:17:25.575Z,27.36
2022-08-20T15:19:52.074Z,27.36
2022-08-20T15:22:19.151Z,27.35
2022-08-20T15:24:45.634Z,27.36
2022-08-20T15:27:13.488Z,27.34
2022-08-20T15:29:40.258Z,27.34
2022-08-20T15:32:08.531Z,27.36
2022-08-20T15:34:39.405Z,27.36
2022-08-20T15:37:07.221Z,27.35
2022-08-20T15:39:33.743Z,27.35
2022-08-20T15:42:00.242Z,27.33
2022-08-20T15:44:26.689Z,27.33
2022-08-20T15:46:53.212Z,27.36
2022-08-20T15:49:19.802Z,27.35
2022-08-20T15:51:47.742Z,27.33
2022-08-20T15:54:18.487Z,27.34
2022-08-20T15:57:01.741Z,27.34
2022-08-20T15:59:49.272Z,27.34
2022-08-20T16:02:28.147Z,27.33
2022-08-20T16:05:13.424Z,27.32
2022-08-20T16:07:49.046Z,27.33
2022-08-20T16:10:23.616Z,27.31
2022-08-20T16:12:52.557Z,27.29
2022-08-20T16:15:24.068Z,27.29
2022-08-20T16:17:54.478Z,27.30
2022-08-20T16:20:22.261Z,27.30
2022-08-20T16:22:49.182Z,27.31
2022-08-20T16:25:22.726Z,27.31
2022-08-20T16:28:00.120Z,27.31
2022-08-20T16:30:34.183Z,27.31
2022-08-20T16:33:08.091Z,27.31
2022-08-20T16:35:37.506Z,27.31
2022-08-20T16:38:10.823Z,27.32
2022-08-20T16:40:44.645Z,27.31
2022-08-20T16:43:23.616Z,27.31
2022-08-20T16:46:04.587Z,27.31
2022-08-20T16:48:35.618Z,27.31
2022-08-20T16:51:05.257Z,27.31
2022-08-20T16:53:32.233Z,27.30
2022-08-20T16:55:58.757Z,27.29
2022-08-20T16:58:25.951Z,27.31
2022-08-20T17:01:08.856Z,27.31
2022-08-20T17:03:40.038Z,27.31
2022-08-20T17:06:15.804Z,27.33
2022-08-20T17:08:46.585Z,27.33
2022-08-20T17:11:14.622Z,27.33
2022-08-20T17:13:45.662Z,27.34
2022-08-20T17:16:15.209Z,27.34
2022-08-20T17:18:46.054Z,27.34
2022-08-20T17:21:12.447Z,27.34
2022-08-20T17:23:55.201Z,27.34
2022-08-20T17:26:29.474Z,27.34
2022-08-20T17:28:57.526Z,27.34
2022-08-20T17:31:39.012Z,27.35
2022-08-20T17:34:05.850Z,27.34
2022-08-20T17:36:34.255Z,27.33
2022-08-20T17:39:01.341Z,27.33
2022-08-20T17:41:27.745Z,27.33
2022-08-20T17:43:58.501Z,27.31
2022-08-20T17:46:26.094Z,27.30
2022-08-20T17:48:52.810Z,27.30
2022-08-20T17:51:26.586Z,27.30
2022-08-20T17:53:56.406Z,27.30
2022-08-20T17:56:26.117Z,27.29
2022-08-20T17:59:10.451Z,27.29
2022-08-20T18:01:37.400Z,27.29
2022-08-20T18:04:03.939Z,27.28
2022-08-20T18:06:33.207Z,27.27
2022-08-20T18:08:59.682Z,27.28
2022-08-20T18:11:29.848Z,27.28
2022-08-20T18:14:05.170Z,27.28
2022-08-20T18:16:42.394Z,27.27
2022-08-20T18:19:15.105Z,27.26
2022-08-20T18:22:00.068Z,27.26
2022-08-20T18:24:30.526Z,27.26
2022-08-20T18:27:00.877Z,27.25
2022-08-20T18:29:33.968Z,27.26
2022-08-20T18:32:02.413Z,27.25
2022-08-20T18:34:29.585Z,27.26
2022-08-20T18:37:07.365Z,27.25
2022-08-20T18:39:35.904Z,27.26
2022-08-20T18:42:02.508Z,27.26
2022-08-20T18:44:34.295Z,27.26
2022-08-20T18:47:04.571Z,27.24
2022-08-20T18:49:32.819Z,27.25
2022-08-20T18:52:08.923Z,27.25
2022-08-20T18:54:35.833Z,27.24
2022-08-20T18:57:04.201Z,27.25
2022-08-20T18:59:32.357Z,27.24
2022-08-20T19:01:58.968Z,27.24
2022-08-20T19:04:31.984Z,27.24
2022-08-20T19:07:06.016Z,27.23
2022-08-20T19:09:53.748Z,27.24
2022-08-20T19:12:38.347Z,27.23
2022-08-20T19:15:07.305Z,27.22
2022-08-20T19:17:39.986Z,27.23
2022-08-20T19:20:10.487Z,27.21
2022-08-20T19:22:38.610Z,27.22
2022-08-20T19:25:05.430Z,27.22
2022-08-20T19:27:32.070Z,27.23
2022-08-20T19:29:58.622Z,27.22
2022-08-20T19:32:28.517Z,27.22
2022-08-20T19:35:01.427Z,27.21
2022-08-20T19:37:39.961Z,27.19
2022-08-20T19:40:26.546Z,27.18
2022-08-20T19:42:56.391Z,27.19
2022-08-20T19:45:46.118Z,27.18
2022-08-20T19:48:12.662Z,27.17
2022-08-20T19:50:43.390Z,27.16
2022-08-20T19:53:19.160Z,27.14
2022-08-20T19:56:00.454Z,27.16
2022-08-20T19:58:27.875Z,27.14
2022-08-20T20:00:55.413Z,27.15
2022-08-20T20:03:21.849Z,27.15
2022-08-20T20:05:53.643Z,27.15
2022-08-20T20:08:20.914Z,27.16
2022-08-20T20:10:53.770Z,27.16
2022-08-20T20:13:21.405Z,27.16
2022-08-20T20:15:50.670Z,27.17
2022-08-20T20:18:17.162Z,27.16
2022-08-20T20:20:57.474Z,27.16
2022-08-20T20:23:45.805Z,27.16
2022-08-20T20:26:16.691Z,27.16
2022-08-20T20:28:47.401Z,27.16
2022-08-20T20:31:20.721Z,27.18
2022-08-20T20:33:51.123Z,27.16
2022-08-20T20:36:18.795Z,27.16
2022-08-20T20:38:53.049Z,27.16
2022-08-20T20:41:22.317Z,27.18
2022-08-20T20:43:57.882Z,27.16
2022-08-20T20:46:25.541Z,27.17
2022-08-20T20:48:56.069Z,27.15
2022-08-20T20:51:25.240Z,27.16
2022-08-20T20:53:55.001Z,27.15
2022-08-20T20:56:42.184Z,27.15
2022-08-20T20:59:09.560Z,27.15
2022-08-20T21:01:48.658Z,27.13
2022-08-20T21:04:21.265Z,27.12
2022-08-20T21:06:48.068Z,27.12
2022-08-20T21:09:14.766Z,27.13
2022-08-20T21:11:41.257Z,27.13
2022-08-20T21:14:07.798Z,27.12
2022-08-20T21:16:34.364Z,27.12
2022-08-20T21:19:01.520Z,27.12
2022-08-20T21:21:28.026Z,27.13
2022-08-20T21:23:54.483Z,27.12
2022-08-20T21:26:20.986Z,27.12
2022-08-20T21:28:47.482Z,27.12
2022-08-20T21:31:14.360Z,27.12
2022-08-20T21:33:40.794Z,27.12
2022-08-20T21:36:07.508Z,27.12
2022-08-20T21:38:33.949Z,27.12
2022-08-20T21:41:00.511Z,27.12
2022-08-20T21:43:29.272Z,27.11
2022-08-20T21:46:01.362Z,27.11
2022-08-20T21:48:28.936Z,27.13
2022-08-20T21:50:55.467Z,27.12
2022-08-20T21:53:22.855Z,27.11
2022-08-20T21:55:49.313Z,27.11
2022-08-20T21:58:16.588Z,27.11
2022-08-20T22:00:45.226Z,27.11
2022-08-20T22:03:14.194Z,27.09
2022-08-20T22:05:41.170Z,27.10
2022-08-20T22:08:07.777Z,27.10
2022-08-20T22:10:34.323Z,27.09
2022-08-20T22:13:00.937Z,27.11
2022-08-20T22:15:27.414Z,27.09
2022-08-20T22:17:53.935Z,27.08
2022-08-20T22:20:20.522Z,27.08
2022-08-20T22:22:47.083Z,27.08
2022-08-20T22:25:13.619Z,27.07
2022-08-20T22:27:41.609Z,27.07
2022-08-20T22:30:08.548Z,27.06
2022-08-20T22:32:51.384Z,27.05
2022-08-20T22:35:18.857Z,27.03
2022-08-20T22:37:45.422Z,27.03
2022-08-20T22:40:12.030Z,27.04
2022-08-20T22:42:38.714Z,27.04
2022-08-20T22:45:05.370Z,27.05
2022-08-20T22:47:41.194Z,27.06
2022-08-20T22:50:07.996Z,27.06
2022-08-20T22:52:37.237Z,27.04
2022-08-20T22:55:05.801Z,27.06
2022-08-20T22:57:32.636Z,27.06
2022-08-20T23:00:00.917Z,27.06
2022-08-20T23:02:27.723Z,27.06
2022-08-20T23:04:54.386Z,27.05
2022-08-20T23:07:20.958Z,27.05
2022-08-20T23:09:47.516Z,27.05
2022-08-20T23:12:13.982Z,27.07
2022-08-20T23:14:40.553Z,27.07
2022-08-20T23:17:13.069Z,27.07
2022-08-20T23:19:40.650Z,27.07
2022-08-20T23:22:07.202Z,27.06
2022-08-20T23:24:34.138Z,27.07
2022-08-20T23:27:00.848Z,27.07
2022-08-20T23:29:27.694Z,27.08
2022-08-20T23:31:55.118Z,27.08
2022-08-20T23:34:21.597Z,27.07
2022-08-20T23:36:48.413Z,27.07
2022-08-20T23:39:14.809Z,27.07
2022-08-20T23:41:47.481Z,27.06
2022-08-20T23:44:25.464Z,27.07
2022-08-20T23:46:57.589Z,27.07
2022-08-20T23:49:24.073Z,27.06
2022-08-20T23:51:50.608Z,27.06
2022-08-20T23:54:17.150Z,27.07
2022-08-20T23:56:43.660Z,27.05
2022-08-20T23:59:10.198Z,27.05
